createdAt,value
2022-11-26T05:15:29.826Z,2.80
2022-11-26T05:17:56.298Z,2.80
2022-11-26T05:20:23.060Z,2.60
2022-11-26T05:22:52.535Z,2.55
2022-11-26T05:25:18.959Z,2.53
2022-11-26T05:27:45.460Z,3.00
2022-11-26T05:30:12.450Z,3.10
2022-11-26T05:32:38.921Z,3.92
2022-11-26T05:35:05.762Z,2.60
2022-11-26T05:37:32.640Z,3.78
2022-11-26T05:39:59.097Z,3.45
2022-11-26T05:42:25.557Z,3.42
2022-11-26T05:44:52.043Z,4.13
2022-11-26T05:47:18.529Z,2.85
2022-11-26T05:49:44.970Z,4.10
2022-11-26T05:52:11.464Z,2.78
2022-11-26T05:54:42.030Z,2.67
2022-11-26T05:57:08.642Z,2.30
2022-11-26T05:59:35.199Z,2.20
2022-11-26T06:02:01.744Z,4.00
2022-11-26T06:04:29.080Z,2.60
2022-11-26T06:06:55.621Z,2.80
2022-11-26T06:09:22.141Z,2.80
2022-11-26T06:11:50.324Z,3.88
2022-11-26T06:14:17.492Z,3.38
2022-11-26T06:16:44.251Z,2.70
2022-11-26T06:19:11.975Z,2.80
2022-11-26T06:21:39.518Z,2.53
2022-11-26T06:24:36.436Z,2.20
2022-11-26T06:27:05.239Z,2.80
2022-11-26T06:29:31.748Z,2.95
2022-11-26T06:32:01.526Z,3.35
2022-11-26T06:34:27.980Z,2.83
2022-11-26T06:36:54.415Z,2.33
2022-11-26T06:39:20.862Z,3.28
2022-11-26T06:41:47.439Z,2.67
2022-11-26T06:44:14.136Z,3.60
2022-11-26T06:46:40.618Z,3.00
2022-11-26T06:49:07.371Z,3.45
2022-11-26T06:51:33.862Z,3.83
2022-11-26T06:54:00.322Z,4.20
2022-11-26T06:56:26.780Z,4.60
2022-11-26T06:58:55.212Z,3.55
2022-11-26T07:01:30.228Z,2.72
2022-11-26T07:03:56.725Z,4.20
2022-11-26T07:06:29.073Z,4.25
2022-11-26T07:08:57.467Z,4.53
2022-11-26T07:11:25.504Z,4.53
2022-11-26T07:13:52.386Z,4.53
2022-11-26T07:16:18.956Z,2.40
2022-11-26T07:18:50.112Z,3.45
2022-11-26T07:21:17.112Z,4.65
2022-11-26T07:23:43.741Z,4.45
2022-11-26T07:26:12.411Z,3.78
2022-11-26T07:28:39.572Z,3.38
2022-11-26T07:31:16.395Z,3.30
2022-11-26T07:33:44.167Z,4.15
2022-11-26T07:36:26.011Z,3.08
2022-11-26T07:38:57.274Z,3.80
2022-11-26T07:41:25.071Z,3.40
2022-11-26T07:43:54.924Z,3.60
2022-11-26T07:46:24.869Z,2.95
2022-11-26T07:48:51.761Z,3.60
2022-11-26T07:52:33.144Z,2.78
2022-11-26T07:54:31.172Z,3.92
2022-11-26T07:57:02.553Z,3.95
2022-11-26T07:59:29.708Z,3.35
2022-11-26T08:02:47.016Z,2.25
2022-11-26T08:05:13.557Z,3.30
2022-11-26T08:07:40.100Z,3.90
2022-11-26T08:10:07.227Z,3.80
2022-11-26T08:12:33.722Z,3.13
2022-11-26T08:15:00.179Z,3.70
2022-11-26T08:17:26.720Z,4.43
2022-11-26T08:19:55.246Z,4.47
2022-11-26T08:22:23.773Z,4.80
2022-11-26T08:24:50.281Z,4.72
2022-11-26T08:27:17.253Z,5.32
2022-11-26T08:29:43.689Z,6.60
2022-11-26T08:32:10.137Z,5.55
2022-11-26T08:34:36.878Z,4.65
2022-11-26T08:37:30.181Z,4.95
2022-11-26T08:39:56.598Z,4.28
2022-11-26T08:42:23.075Z,4.28
2022-11-26T08:44:51.734Z,4.22
2022-11-26T08:47:49.085Z,5.75
2022-11-26T08:50:16.331Z,4.82
2022-11-26T08:52:43.597Z,4.55
2022-11-26T08:55:10.211Z,4.20
2022-11-26T08:57:36.765Z,5.28
2022-11-26T09:00:05.304Z,4.65
2022-11-26T09:02:36.961Z,5.93
2022-11-26T09:05:19.461Z,5.05
2022-11-26T09:07:49.208Z,6.20
2022-11-26T09:10:24.097Z,4.65
2022-11-26T09:12:51.014Z,6.57
2022-11-26T09:15:20.860Z,5.70
2022-11-26T09:17:52.358Z,6.13
2022-11-26T09:20:21.409Z,5.80
2022-11-26T09:22:48.006Z,5.57
2022-11-26T09:25:14.916Z,6.15
2022-11-26T09:27:41.518Z,5.30
2022-11-26T09:30:08.619Z,7.85
2022-11-26T09:32:35.320Z,5.40
2022-11-26T09:35:04.845Z,15.00
2022-11-26T09:37:32.205Z,6.07
2022-11-26T09:39:59.065Z,5.78
2022-11-26T09:42:31.873Z,5.00
2022-11-26T09:45:34.742Z,6.18
2022-11-26T09:48:03.125Z,5.70
2022-11-26T09:50:35.544Z,6.65
2022-11-26T09:53:27.612Z,5.57
2022-11-26T09:55:59.093Z,4.72
2022-11-26T09:58:48.985Z,5.10
2022-11-26T10:01:21.072Z,4.90
2022-11-26T10:03:54.409Z,4.85
2022-11-26T10:07:20.447Z,4.87
2022-11-26T10:09:53.919Z,5.50
2022-11-26T10:13:03.530Z,5.40
2022-11-26T10:15:35.735Z,4.55
2022-11-26T10:18:20.876Z,4.65
2022-11-26T10:24:32.049Z,5.63
2022-11-26T10:27:19.279Z,5.20
2022-11-26T10:29:54.254Z,4.45
2022-11-26T10:32:27.686Z,5.55
2022-11-26T10:34:58.553Z,4.80
2022-11-26T10:37:27.310Z,4.63
2022-11-26T10:40:08.843Z,4.60
2022-11-26T10:42:46.871Z,4.20
2022-11-26T10:45:28.020Z,3.97
2022-11-26T10:48:31.200Z,3.88
2022-11-26T10:50:59.764Z,4.70
2022-11-26T10:53:28.651Z,5.15
2022-11-26T10:55:59.130Z,15.73
2022-11-26T10:58:30.252Z,3.80
2022-11-26T11:01:01.903Z,6.75
2022-11-26T11:06:37.621Z,3.45
2022-11-26T11:09:25.647Z,3.88
2022-11-26T11:12:16.478Z,4.38
2022-11-26T11:14:47.470Z,3.90
2022-11-26T11:17:35.617Z,3.38
2022-11-26T11:20:14.885Z,4.35
2022-11-26T11:22:44.273Z,4.07
2022-11-26T11:25:32.458Z,3.92
2022-11-26T11:28:12.003Z,4.25
2022-11-26T11:30:40.410Z,4.00
2022-11-26T11:33:23.997Z,4.45
2022-11-26T11:36:15.088Z,4.28
2022-11-26T11:38:52.477Z,4.55
2022-11-26T11:41:27.020Z,4.45
2022-11-26T11:44:00.041Z,4.00
2022-11-26T11:46:49.281Z,3.30
2022-11-26T11:49:40.517Z,3.25
2022-11-26T11:52:54.816Z,3.47
2022-11-26T11:55:24.266Z,3.57
2022-11-26T11:58:35.451Z,3.35
2022-11-26T12:01:38.374Z,3.42
2022-11-26T12:04:29.095Z,3.22
2022-11-26T12:07:33.879Z,3.40
2022-11-26T12:12:33.587Z,4.18
2022-11-26T12:15:10.308Z,3.45
2022-11-26T12:17:46.881Z,3.42
2022-11-26T12:20:31.447Z,4.03
2022-11-26T12:23:38.414Z,3.63
2022-11-26T12:26:27.666Z,3.47
2022-11-26T12:29:00.653Z,3.75
2022-11-26T12:31:41.952Z,2.88
2022-11-26T12:34:32.180Z,3.00
2022-11-26T12:37:05.688Z,2.83
2022-11-26T12:39:56.175Z,3.30
2022-11-26T12:42:33.617Z,3.50
2022-11-26T12:45:25.470Z,3.72
2022-11-26T12:47:59.866Z,3.47
2022-11-26T12:50:38.174Z,4.63
2022-11-26T12:53:24.183Z,4.65
2022-11-26T12:56:02.684Z,4.65
2022-11-26T12:58:42.494Z,5.47
2022-11-26T13:01:11.170Z,5.43
2022-11-26T13:03:37.701Z,6.35
2022-11-26T13:06:31.758Z,6.20
2022-11-26T13:09:07.956Z,6.75
2022-11-26T13:11:57.245Z,6.07
2022-11-26T13:14:31.246Z,5.05
2022-11-26T13:17:12.222Z,4.10
2022-11-26T13:19:43.791Z,5.65
2022-11-26T13:22:33.911Z,4.40
2022-11-26T13:25:26.729Z,4.32
2022-11-26T13:28:10.287Z,3.80
2022-11-26T13:31:07.871Z,3.78
2022-11-26T13:34:26.331Z,3.63
2022-11-26T13:37:57.730Z,3.90
2022-11-26T13:40:30.294Z,3.28
2022-11-26T13:42:56.778Z,3.88
2022-11-26T13:45:54.640Z,3.67
2022-11-26T13:48:58.290Z,3.92
2022-11-26T13:51:49.015Z,4.20
2022-11-26T13:54:18.562Z,4.03
2022-11-26T13:56:46.944Z,3.65
2022-11-26T13:59:28.329Z,3.92
2022-11-26T14:01:56.125Z,3.55
2022-11-26T14:04:22.603Z,3.92
2022-11-26T14:07:04.377Z,4.53
2022-11-26T14:09:43.176Z,4.15
2022-11-26T14:12:10.850Z,3.80
2022-11-26T14:14:39.419Z,4.22
2022-11-26T14:17:30.100Z,3.70
2022-11-26T14:20:01.116Z,3.85
2022-11-26T14:22:29.624Z,4.95
2022-11-26T14:25:02.411Z,4.28
2022-11-26T14:27:34.808Z,3.33
2022-11-26T14:30:07.450Z,3.63
2022-11-26T14:33:14.554Z,4.25
2022-11-26T14:35:51.639Z,5.63
2022-11-26T14:38:27.628Z,5.00
2022-11-26T14:40:59.284Z,4.53
2022-11-26T14:43:26.089Z,3.67
2022-11-26T14:46:19.646Z,4.38
2022-11-26T14:48:48.747Z,3.58
2022-11-26T14:51:23.358Z,3.35
2022-11-26T14:53:50.801Z,3.97
2022-11-26T14:56:19.673Z,3.45
2022-11-26T14:58:51.554Z,4.90
2022-11-26T15:01:23.743Z,3.58
2022-11-26T15:04:05.387Z,3.72
2022-11-26T15:06:37.928Z,3.70
2022-11-26T15:09:16.833Z,3.40
2022-11-26T15:12:12.455Z,3.72
2022-11-26T15:14:53.865Z,3.70
2022-11-26T15:17:24.088Z,3.10
2022-11-26T15:19:52.594Z,3.03
2022-11-26T15:22:32.907Z,2.80
2022-11-26T15:24:59.531Z,3.20
2022-11-26T15:27:36.228Z,2.72
2022-11-26T15:30:05.328Z,2.63
2022-11-26T15:32:33.880Z,2.70
2022-11-26T15:35:02.843Z,2.53
2022-11-26T15:37:29.449Z,2.65
2022-11-26T15:40:23.485Z,3.22
2022-11-26T15:42:53.790Z,4.40
2022-11-26T15:45:22.960Z,3.05
2022-11-26T15:47:52.391Z,2.90
2022-11-26T15:50:25.662Z,2.60
2022-11-26T15:52:56.531Z,3.20
2022-11-26T15:55:28.460Z,2.92
2022-11-26T15:57:56.200Z,2.90
2022-11-26T16:00:27.971Z,2.83
2022-11-26T16:02:54.435Z,3.05
2022-11-26T16:05:35.885Z,2.78
2022-11-26T16:08:32.425Z,2.60
2022-11-26T16:11:08.667Z,3.55
2022-11-26T16:13:36.215Z,3.00
2022-11-26T16:16:15.562Z,3.15
2022-11-26T16:18:48.474Z,2.60
2022-11-26T16:21:16.650Z,3.08
2022-11-26T16:23:43.629Z,2.70
2022-11-26T16:26:17.766Z,2.30
2022-11-26T16:31:12.775Z,2.60
2022-11-26T16:33:39.331Z,2.75
2022-11-26T16:36:16.623Z,2.75
2022-11-26T16:38:45.287Z,3.38
2022-11-26T16:41:14.711Z,3.55
2022-11-26T16:43:41.275Z,3.28
2022-11-26T16:46:14.987Z,3.40
2022-11-26T16:48:42.826Z,2.78
2022-11-26T16:51:09.386Z,3.45
2022-11-26T16:53:35.872Z,3.90
2022-11-26T16:56:02.688Z,3.97
2022-11-26T16:58:32.360Z,3.35
2022-11-26T17:00:59.556Z,4.30
2022-11-26T17:03:29.839Z,4.57
2022-11-26T17:06:11.050Z,3.17
2022-11-26T17:08:37.602Z,2.97
2022-11-26T17:11:04.180Z,2.97
2022-11-26T17:13:31.744Z,2.90
2022-11-26T17:15:58.600Z,3.40
2022-11-26T17:18:26.069Z,3.20
2022-11-26T17:20:54.038Z,2.85
2022-11-26T17:23:20.753Z,3.42
2022-11-26T17:25:51.882Z,3.13
2022-11-26T17:28:18.720Z,2.75
2022-11-26T17:30:45.282Z,2.78
2022-11-26T17:33:12.298Z,2.97
2022-11-26T17:35:39.497Z,3.47
2022-11-26T17:38:19.833Z,3.10
2022-11-26T17:40:47.035Z,2.85
2022-11-26T17:43:14.153Z,3.22
2022-11-26T17:45:41.348Z,3.63
2022-11-26T17:48:12.019Z,2.53
2022-11-26T17:50:38.674Z,3.08
2022-11-26T17:53:05.191Z,3.10
2022-11-26T17:55:31.717Z,3.17
2022-11-26T17:57:58.342Z,2.90
2022-11-26T18:00:30.197Z,2.90
2022-11-26T18:02:57.523Z,3.00
2022-11-26T18:05:24.551Z,3.33
2022-11-26T18:07:55.144Z,2.85
2022-11-26T18:10:23.740Z,3.53
2022-11-26T18:12:54.293Z,3.65
2022-11-26T18:15:22.909Z,3.17
2022-11-26T18:17:51.866Z,2.92
2022-11-26T18:20:20.202Z,3.40
2022-11-26T18:22:52.711Z,3.95
2022-11-26T18:25:19.260Z,2.45
2022-11-26T18:27:45.964Z,3.80
2022-11-26T18:30:12.998Z,3.60
2022-11-26T18:32:39.865Z,3.90
2022-11-26T18:35:07.224Z,3.83
2022-11-26T18:37:35.052Z,3.40
2022-11-26T18:40:04.075Z,2.40
2022-11-26T18:42:38.491Z,3.75
2022-11-26T18:45:07.684Z,3.33
2022-11-26T18:47:34.170Z,3.70
2022-11-26T18:50:00.640Z,2.63
2022-11-26T18:52:27.108Z,3.17
2022-11-26T18:54:54.898Z,2.90
2022-11-26T18:57:21.431Z,3.95
2022-11-26T18:59:48.884Z,3.58
2022-11-26T19:02:15.356Z,3.47
2022-11-26T19:04:41.927Z,3.70
2022-11-26T19:07:08.991Z,3.85
2022-11-26T19:09:35.517Z,4.10
2022-11-26T19:12:02.083Z,3.65
2022-11-26T19:14:28.518Z,4.20
2022-11-26T19:16:55.047Z,4.32
2022-11-26T19:19:22.590Z,4.60
2022-11-26T19:22:00.506Z,3.45
2022-11-26T19:24:31.267Z,3.10
2022-11-26T19:26:57.786Z,3.60
2022-11-26T19:29:24.373Z,3.58
2022-11-26T19:31:50.889Z,4.53
2022-11-26T19:34:18.414Z,4.70
2022-11-26T19:36:49.813Z,5.35
2022-11-26T19:39:16.811Z,4.80
2022-11-26T19:41:43.372Z,4.47
2022-11-26T19:44:09.832Z,4.10
2022-11-26T19:46:40.545Z,3.75
2022-11-26T19:49:08.060Z,3.70
2022-11-26T19:51:34.547Z,5.25
2022-11-26T19:54:00.998Z,5.63
2022-11-26T19:56:30.213Z,4.55
2022-11-26T19:58:58.516Z,5.55
2022-11-26T20:01:27.203Z,5.22
2022-11-26T20:03:54.085Z,5.82
2022-11-26T20:06:23.692Z,5.13
2022-11-26T20:08:50.326Z,5.55
2022-11-26T20:11:21.243Z,7.43
2022-11-26T20:13:49.042Z,7.53
2022-11-26T20:16:30.273Z,5.53
2022-11-26T20:18:59.529Z,6.93
2022-11-26T20:21:28.110Z,6.30
2022-11-26T20:23:57.971Z,7.32
2022-11-26T20:26:34.123Z,7.43
2022-11-26T20:29:12.475Z,7.38
2022-11-26T20:31:42.406Z,8.25
2022-11-26T20:34:08.878Z,8.10
2022-11-26T20:36:35.368Z,9.38
2022-11-26T20:39:02.626Z,7.68
2022-11-26T20:41:29.991Z,8.43
2022-11-26T20:43:59.439Z,9.02
2022-11-26T20:46:28.341Z,8.80
2022-11-26T20:48:55.366Z,9.95
2022-11-26T20:51:22.577Z,9.20
2022-11-26T20:53:50.501Z,8.50
2022-11-26T20:56:19.036Z,8.55
2022-11-26T20:58:45.579Z,7.90
2022-11-26T21:01:17.180Z,8.25
2022-11-26T21:03:44.475Z,8.57
2022-11-26T21:06:13.741Z,7.40
2022-11-26T21:08:41.455Z,8.10
2022-11-26T21:11:08.258Z,9.30
2022-11-26T21:13:36.491Z,9.95
2022-11-26T21:16:05.060Z,8.70
2022-11-26T21:18:32.507Z,9.23
2022-11-26T21:20:59.953Z,9.45
2022-11-26T21:23:26.996Z,9.90
2022-11-26T21:25:53.487Z,10.40
2022-11-26T21:28:20.438Z,10.23
2022-11-26T21:30:47.287Z,9.73
2022-11-26T21:33:14.875Z,9.73
2022-11-26T21:35:41.322Z,10.00
2022-11-26T21:38:07.838Z,9.25
2022-11-26T21:40:34.347Z,11.00
2022-11-26T21:43:00.800Z,10.55
2022-11-26T21:45:30.204Z,9.25
2022-11-26T21:47:56.689Z,9.70
2022-11-26T21:50:23.171Z,9.07
2022-11-26T21:52:49.646Z,8.90
2022-11-26T21:55:16.397Z,9.57
2022-11-26T21:57:42.843Z,8.23
2022-11-26T22:00:09.927Z,8.18
2022-11-26T22:02:36.467Z,8.10
2022-11-26T22:05:03.196Z,7.70
2022-11-26T22:07:30.670Z,7.75
2022-11-26T22:09:57.322Z,7.78
2022-11-26T22:12:23.741Z,7.65
2022-11-26T22:14:50.165Z,8.30
2022-11-26T22:17:16.645Z,8.40
2022-11-26T22:19:43.392Z,7.75
2022-11-26T22:22:09.915Z,7.55
2022-11-26T22:24:36.363Z,7.00
2022-11-26T22:27:02.858Z,7.45
2022-11-26T22:29:29.392Z,7.32
2022-11-26T22:31:55.906Z,5.55
2022-11-26T22:34:24.440Z,5.68
2022-11-26T22:36:51.101Z,6.63
2022-11-26T22:39:18.683Z,6.43
2022-11-26T22:41:46.603Z,6.97
2022-11-26T22:44:15.494Z,7.25
2022-11-26T22:46:42.132Z,8.00
2022-11-26T22:49:12.829Z,7.35
2022-11-26T22:51:39.559Z,7.22
2022-11-26T22:54:09.684Z,6.45
2022-11-26T22:56:37.827Z,7.25
2022-11-26T22:59:06.379Z,7.22
